• Join FlightAware (Why Join?)
  • Login
  • US Flag 
02:32AM EST


 

Airport Tracker/Info


-or-


 

Live Flight TrackerFlight Track Log ✈ ASQ6151 ✈ 05-Jul-2013 ✈ KBWI - KORD

Flight Track Log - Related Links

Times and Time Zones

All times are in EDT time to prevent confusion due to time zone crossing. See the ASQ6151 flight status page for this flight to view local times or setup timezone preferences in your user account.

Time Position Orientation Groundspeed Altitude Reporting Facility
EDT Latitude Longitude Course Direction KTS MPH feet Rate Location/Type
05:37AM 39.1833 -76.7000 256° West 171 197 1,600  Level Potomac TRACON
05:39AM 39.1925 -76.8317 275° West 210 242 5,800 2,400 Climbing Washington Center
05:40AM 39.2000 -77.0625 270° West  Level FlightAware Approximate
05:40AM 39.2064 -76.9094 283° West 223 257 8,400  Level Washington Center
05:41AM 39.1695 -77.1775 211° Southwest  Level FlightAware Approximate
05:41AM 39.2117 -76.9953 275° West 234 269 10,800  Level Washington Center
05:42AM 39.0796 -77.2474 211° Southwest  Level FlightAware Approximate
05:42AM 39.2125 -77.0917 271° West 254 292 12,500  Level Washington Center
05:43AM 38.9978 -77.3277 256° West  Level FlightAware Approximate
05:43AM 39.1781 -77.1819 244° Southwest 268 308 13,900  Level Washington Center
05:44AM 39.1083 -77.2447 215° Southwest 287 330 15,000 1,020 Climbing Washington Center
05:45AM 39.0303 -77.3125 214° Southwest 310 357 16,000 1,020 Climbing Washington Center
05:46AM 38.9892 -77.4236 245° Southwest 333 383 17,000 900 Climbing Washington Center
05:47AM 38.9664 -77.5458 257° West 339 390 17,900 780 Climbing Washington Center
05:48AM 38.9453 -77.6761 258° West 374 430 18,600 780 Climbing Washington Center
05:49AM 38.9450 -77.8122 270° West 379 436 19,500 960 Climbing Washington Center
05:50AM 38.9508 -77.9511 273° West 389 448 20,600 1,140 Climbing Washington Center
05:51AM 38.9544 -78.0767 272° West 389 448 21,800 1,140 Climbing Washington Center
05:52AM 38.9600 -78.2106 273° West 389 448 22,900 1,080 Climbing Washington Center
05:53AM 38.9631 -78.3467 272° West 384 442 24,000 1,080 Climbing Washington Center
05:54AM 38.9683 -78.4803 273° West 384 442 25,100 1,080 Climbing Washington Center
05:55AM 38.9714 -78.6142 272° West 384 442 26,300 1,080 Climbing Washington Center
05:56AM 38.9764 -78.7478 273° West 384 442 27,400 1,080 Climbing Washington Center
05:57AM 38.9789 -78.8814 271° West 384 442 28,500 1,080 Climbing Washington Center
05:58AM 38.9833 -79.0178 272° West 384 442 29,600 1,140 Climbing Washington Center
05:59AM 38.9858 -79.1542 271° West 384 442 30,800 1,140 Climbing Washington Center
06:00AM 38.9900 -79.2933 272° West 384 442 31,900 1,200 Climbing Washington Center
06:01AM 38.9917 -79.4322 271° West 384 442 33,300 1,140 Climbing Washington Center
06:02AM 38.9956 -79.5714 272° West 384 442 34,200 900 Climbing Washington Center
06:03AM 39.0011 -79.7186 273° West 400 460 35,100 840 Climbing Washington Center
06:04AM 39.0022 -79.8603 271° West 405 466 36,000 420 Climbing Washington Center
06:05AM 39.0036 -80.0275 271° West 426 490 36,000  Level Indianapolis Center
06:06AM 39.0056 -80.1589 271° West 443 510 36,000  Level Indianapolis Center
06:07AM 39.0075 -80.3158 271° West 441 507 36,000  Level Indianapolis Center
06:08AM 39.0103 -80.4753 271° West 445 512 36,000  Level Indianapolis Center
06:09AM 39.0197 -80.6322 274° West 447 514 36,000  Level Indianapolis Center
06:10AM 39.0806 -80.7733 299° West 455 524 36,000  Level Indianapolis Center
06:11AM 39.1578 -80.9425 301° West 460 529 36,000  Level Indianapolis Center
06:12AM 39.2214 -81.0819 301° West 455 524 36,000  Level Indianapolis Center
06:13AM 39.2867 -81.2236 301° West 462 532 36,000  Level Indianapolis Center
06:14AM 39.3511 -81.3639 301° West 458 527 36,000  Level Indianapolis Center
06:15AM 39.4142 -81.5050 300° West 457 526 36,000  Level Indianapolis Center
06:16AM 39.4769 -81.6453 300° West 454 522 36,000  Level Indianapolis Center
06:17AM 39.5406 -81.7864 300° West 456 525 36,000  Level Indianapolis Center
06:18AM 39.6033 -81.9267 300° West 453 521 36,000  Level Indianapolis Center
06:19AM 39.6658 -82.0692 300° West 455 524 36,000  Level Indianapolis Center
06:20AM 39.7314 -82.2147 300° West 450 518 36,000  Level Indianapolis Center
06:21AM 39.7933 -82.3569 300° West 449 517 36,000  Level Indianapolis Center
06:22AM 39.8558 -82.5006 300° West 452 520 36,000  Level Indianapolis Center
06:23AM 39.9186 -82.6450 300° West 456 525 36,000  Level Indianapolis Center
06:24AM 39.9819 -82.7886 300° West 454 522 36,000  Level Indianapolis Center
06:25AM 40.0436 -82.9325 299° West 454 522 36,000  Level Indianapolis Center
06:26AM 40.1056 -83.0781 299° West 456 525 36,000  Level Indianapolis Center
06:27AM 40.1683 -83.2222 300° West 456 525 36,000  Level Indianapolis Center
06:28AM 40.2294 -83.3678 299° West 458 527 36,000  Level Indianapolis Center
06:29AM 40.2906 -83.5133 299° West 456 525 36,000  Level Indianapolis Center
06:30AM 40.3522 -83.6589 299° West 456 525 36,000  Level Indianapolis Center
06:31AM 40.4133 -83.8036 299° West 452 520 36,000 -360 Level Indianapolis Center
06:32AM 40.4733 -83.9467 299° West 446 513 35,300 -900 Descending Indianapolis Center
06:33AM 40.5328 -84.0925 298° West 450 518 34,300 -720 Descending Indianapolis Center
06:34AM 40.5856 -84.2181 299° West 464 534 33,900 -180 Descending Indianapolis Center
06:35AM 40.6478 -84.3683 299° West 465 535 34,000  Climbing Indianapolis Center
06:36AM 40.7100 -84.5200 298° West 467 537 34,000  Level Indianapolis Center
06:37AM 40.7731 -84.6747 298° West 472 543 34,000  Level Indianapolis Center
06:38AM 40.8353 -84.8300 298° West 475 547 34,000  Level Indianapolis Center
06:39AM 40.8728 -84.9228 298° West 475 547 34,000  Level Chicago Center
06:40AM 40.9261 -85.0797 294° West 471 542 34,000 -360 Level Chicago Center
06:41AM 40.9694 -85.2358 290° West 457 526 33,300 -1,200 Descending Chicago Center
06:42AM 41.0150 -85.3922 291° West 454 522 31,700 -1,620 Descending Chicago Center
06:43AM 41.0622 -85.5531 291° West 464 534 30,100 -1,860 Descending Chicago Center
06:44AM 41.1078 -85.7106 291° West 460 529 28,000 -2,160 Descending Chicago Center
06:45AM 41.1531 -85.8672 291° West 454 522 25,800 -1,500 Descending Chicago Center
06:46AM 41.1992 -86.0272 291° West 461 531 25,000 -1,020 Descending Chicago Center
06:47AM 41.2433 -86.1839 291° West 456 525 23,800 -1,920 Descending Chicago Center
06:48AM 41.2825 -86.3281 290° West 424 488 21,200 -2,580 Descending Chicago Center
06:49AM 41.3244 -86.4756 291° West 423 487 18,700 -2,400 Descending Chicago Center
06:50AM 41.3658 -86.6181 291° West 414 476 16,500 -2,280 Descending Chicago Center
06:51AM 41.4094 -86.7731 291° West 391 450 14,200 -1,920 Descending Chicago Center
06:52AM 41.4464 -86.9061 290° West 386 444 12,700 -1,440 Descending Chicago Center
06:53AM 41.4822 -87.0356 290° West 377 434 11,400 -900 Descending Chicago Center
06:54AM 41.5194 -87.1614 292° West 368 423 11,000 -240 Descending Chicago Center
06:55AM 41.5844 -87.2683 309° West 370 426 11,000  Level Chicago Center
06:56AM 41.6492 -87.3728 310° West 370 426 11,000  Level Chicago Center
06:57AM 41.7142 -87.4753 310° West 367 422 11,000 -60 Level Chicago Center
06:58AM 41.7778 -87.5786 310° West 365 420 10,900 -540 Descending Chicago Center
06:59AM 41.8311 -87.6647 310° West 310 357 10,000 -1,380 Descending Chicago Center
07:00AM 41.8811 -87.7444 310° West 284 327 8,200 -1,500 Descending Chicago Center
07:01AM 41.9703 -87.7569 354° North 274 315 7,000 -960 Descending Chicago Center
07:02AM 42.0314 -87.7369 14° North 247 284 6,300 -1,260 Descending Chicago Center
07:03AM 42.0850 -87.6908 33° Northeast 231 266 4,500 -1,740 Descending Chicago Center
07:04AM 42.1211 -87.7503 309° West 226 260 2,800 -1,020 Descending Chicago Center
07:05AM 42.0872 -87.7961 225° Southwest 182 209 2,500 -300 Descending Chicago Center